Time;durP1;ratioP1;P1;durP2;ratioP2;P2;SDS_P1;SDS_P2;PMS_P1;PMS_P2;Temp;Humidity;BMP_temperature;BMP_pressure;BME280_temperature;BME280_humidity;BME280_pressure;Samples;Min_cycle;Max_cycle;Signal;HPM_P1;HPM_P2
2022/06/21 00:00:51;;;;;;;11.68;5.93;;;;;;;;;;4391501;32;20027;-67
2022/06/21 00:03:19;;;;;;;7.80;5.53;;;;;;;;;;4389653;32;20050;-67
2022/06/21 00:05:46;;;;;;;18.08;5.90;;;;;;;;;;4391148;32;20451;-67
2022/06/21 00:08:16;;;;;;;14.23;6.35;;;;;;;;;;4377697;32;20039;-67
2022/06/21 00:10:41;;;;;;;18.77;5.68;;;;;;;;;;4391223;32;20492;-68
2022/06/21 00:13:09;;;;;;;15.27;6.75;;;;;;;;;;4390716;32;20031;-68
2022/06/21 00:15:34;;;;;;;20.95;7.20;;;;;;;;;;4390563;32;20073;-67
2022/06/21 00:18:00;;;;;;;13.53;5.70;;;;;;;;;;4389566;32;20027;-67
2022/06/21 00:20:25;;;;;;;;;;;;;;;;;;4391631;32;20169;-68
2022/06/21 00:22:50;;;;;;;14.95;6.35;;;;;;;;;;4390574;32;19937;-68
2022/06/21 00:25:17;;;;;;;19.67;7.60;;;;;;;;;;4391283;32;20384;-68
2022/06/21 00:27:42;;;;;;;18.92;8.13;;;;;;;;;;4388135;32;20022;-68
2022/06/21 00:30:08;;;;;;;21.52;8.10;;;;;;;;;;4389242;32;20053;-68
2022/06/21 00:32:33;;;;;;;17.52;7.15;;;;;;;;;;4390990;32;20420;-68
2022/06/21 00:34:58;;;;;;;;;;;;;;;;;;4391393;32;20363;-67
2022/06/21 00:37:23;;;;;;;14.68;6.72;;;;;;;;;;4408242;27;19941;-69
2022/06/21 00:39:49;;;;;;;15.55;6.50;;;;;;;;;;4370587;32;20073;-72
2022/06/21 00:42:29;;;;;;;16.95;6.82;;;;;;;;;;4375132;32;20094;-72
2022/06/21 00:45:06;;;;;;;15.70;6.93;;;;;;;;;;4365796;32;20081;-72
2022/06/21 00:47:31;;;;;;;;;;;;;;;;;;4349506;33;20050;-72
2022/06/21 00:49:58;;;;;;;13.68;7.00;;;;;;;;;;4362535;33;19958;-72
2022/06/21 00:52:42;;;;;;;16.85;7.62;;;;;;;;;;4362900;32;20027;-71
2022/06/21 00:55:30;;;;;;;16.83;7.55;;;;;;;;;;4362836;33;20089;-72
2022/06/21 00:57:55;;;;;;;15.55;7.15;;;;;;;;;;4374082;32;20030;-71
2022/06/21 01:00:25;;;;;;;13.13;5.60;;;;;;;;;;4379133;32;20105;-71
2022/06/21 01:02:51;;;;;;;17.73;6.87;;;;;;;;;;4377908;32;20061;-71
2022/06/21 01:05:16;;;;;;;16.87;6.62;;;;;;;;;;4378054;32;20019;-71
2022/06/21 01:07:42;;;;;;;;;;;;;;;;;;4377768;32;20023;-71
2022/06/21 01:10:13;;;;;;;14.38;6.90;;;;;;;;;;4365206;32;19945;-71
2022/06/21 01:12:43;;;;;;;17.37;6.65;;;;;;;;;;4377365;32;20052;-71
2022/06/21 01:15:12;;;;;;;12.82;6.47;;;;;;;;;;4377654;32;20075;-71
2022/06/21 01:17:37;;;;;;;18.77;8.30;;;;;;;;;;4376137;32;20023;-71
2022/06/21 01:20:08;;;;;;;18.87;7.70;;;;;;;;;;4377242;32;20062;-71
2022/06/21 01:22:43;;;;;;;18.42;8.55;;;;;;;;;;4378811;32;20078;-71
2022/06/21 01:25:27;;;;;;;22.35;8.40;;;;;;;;;;4376185;32;20101;-71
2022/06/21 01:27:55;;;;;;;16.98;8.43;;;;;;;;;;4378880;32;20460;-72
2022/06/21 01:30:21;;;;;;;19.10;10.35;;;;;;;;;;4378741;32;20035;-71
2022/06/21 01:32:46;;;;;;;22.33;9.45;;;;;;;;;;4377709;32;20337;-71
2022/06/21 01:35:16;;;;;;;17.30;8.13;;;;;;;;;;4376958;32;20035;-71
2022/06/21 01:37:41;;;;;;;16.73;9.02;;;;;;;;;;4377918;32;20066;-70
2022/06/21 01:40:10;;;;;;;23.75;9.90;;;;;;;;;;4376789;32;20450;-70
2022/06/21 01:42:43;;;;;;;13.15;7.70;;;;;;;;;;4377800;32;20031;-70
2022/06/21 01:45:12;;;;;;;17.00;9.02;;;;;;;;;;4377862;32;20069;-71
2022/06/21 01:47:43;;;;;;;14.87;8.82;;;;;;;;;;4376744;32;20023;-71
2022/06/21 01:50:09;;;;;;;14.57;7.87;;;;;;;;;;4377803;32;20088;-71
2022/06/21 01:52:35;;;;;;;21.15;8.85;;;;;;;;;;4363883;32;20426;-71
2022/06/21 01:55:06;;;;;;;17.25;8.35;;;;;;;;;;4377704;32;20022;-71
2022/06/21 01:57:31;;;;;;;16.55;10.10;;;;;;;;;;4376477;32;20435;-71
2022/06/21 01:59:58;;;;;;;24.65;8.38;;;;;;;;;;4375781;32;20027;-71
2022/06/21 02:02:26;;;;;;;19.52;9.27;;;;;;;;;;4376304;32;20065;-71
2022/06/21 02:04:56;;;;;;;23.80;10.15;;;;;;;;;;4377707;32;20057;-71
2022/06/21 02:07:24;;;;;;;16.90;9.43;;;;;;;;;;4378094;32;20031;-71
2022/06/21 02:09:51;;;;;;;18.10;10.30;;;;;;;;;;4377764;32;20050;-71
2022/06/21 02:12:16;;;;;;;14.65;8.50;;;;;;;;;;4376517;32;20031;-71
2022/06/21 02:14:45;;;;;;;13.60;7.90;;;;;;;;;;4376673;32;20421;-71
2022/06/21 02:17:16;;;;;;;13.13;7.97;;;;;;;;;;4376834;32;20161;-72
2022/06/21 02:19:44;;;;;;;10.90;7.82;;;;;;;;;;4375953;32;20063;-72
2022/06/21 02:22:14;;;;;;;16.87;8.77;;;;;;;;;;4378219;32;20066;-72
2022/06/21 02:24:39;;;;;;;15.90;7.78;;;;;;;;;;4377791;32;20048;-71
2022/06/21 02:27:05;;;;;;;18.05;9.93;;;;;;;;;;4379078;32;20019;-71
2022/06/21 02:29:30;;;;;;;;;;;;;;;;;;4376900;32;20027;-72
2022/06/21 02:31:56;;;;;;;22.37;9.23;;;;;;;;;;4376865;32;19977;-71
2022/06/21 02:34:27;;;;;;;25.85;10.52;;;;;;;;;;4361497;32;20023;-71
2022/06/21 02:36:54;;;;;;;17.87;11.00;;;;;;;;;;4363126;32;20374;-71
2022/06/21 02:39:21;;;;;;;17.73;9.48;;;;;;;;;;4353962;32;20080;-71
2022/06/21 02:41:50;;;;;;;16.48;9.32;;;;;;;;;;4375934;32;20400;-71
2022/06/21 02:44:15;;;;;;;23.00;10.15;;;;;;;;;;4376516;32;20031;-71
2022/06/21 02:46:43;;;;;;;20.65;12.77;;;;;;;;;;4376202;32;20060;-71
2022/06/21 02:49:17;;;;;;;26.65;11.52;;;;;;;;;;4374874;32;20026;-71
2022/06/21 02:51:49;;;;;;;16.23;10.80;;;;;;;;;;4377805;32;20120;-71
2022/06/21 02:54:19;;;;;;;19.73;11.18;;;;;;;;;;4375877;32;20124;-70
2022/06/21 02:57:00;;;;;;;27.58;12.05;;;;;;;;;;4360876;32;20023;-71
2022/06/21 02:59:25;;;;;;;25.45;12.00;;;;;;;;;;4377020;32;20077;-71
2022/06/21 03:02:00;;;;;;;22.87;12.27;;;;;;;;;;4376634;32;20027;-71
2022/06/21 03:04:34;;;;;;;15.73;10.82;;;;;;;;;;4375673;32;20032;-71
2022/06/21 03:06:59;;;;;;;22.75;12.27;;;;;;;;;;4362977;32;20023;-71
2022/06/21 03:09:24;;;;;;;20.30;11.40;;;;;;;;;;4363549;32;20089;-71
2022/06/21 03:11:51;;;;;;;17.90;11.43;;;;;;;;;;4377103;32;20022;-71
2022/06/21 03:14:22;;;;;;;27.80;12.32;;;;;;;;;;4375739;32;20417;-72
2022/06/21 03:16:47;;;;;;;18.73;11.43;;;;;;;;;;4361429;32;20031;-71
2022/06/21 03:19:18;;;;;;;21.00;11.63;;;;;;;;;;4375878;32;20099;-72
2022/06/21 03:21:44;;;;;;;18.15;11.23;;;;;;;;;;4376762;32;20039;-69
2022/06/21 03:24:14;;;;;;;22.73;11.68;;;;;;;;;;4374604;32;20031;-72
2022/06/21 03:26:40;;;;;;;32.42;12.35;;;;;;;;;;4377017;32;20069;-70
2022/06/21 03:29:06;;;;;;;20.02;12.68;;;;;;;;;;4362872;32;20097;-70
2022/06/21 03:31:36;;;;;;;22.53;12.30;;;;;;;;;;4376241;32;20069;-70
2022/06/21 03:34:03;;;;;;;22.83;12.98;;;;;;;;;;4375182;32;20127;-70
2022/06/21 03:36:29;;;;;;;24.77;12.93;;;;;;;;;;4377137;32;20034;-71
2022/06/21 03:39:00;;;;;;;25.88;11.43;;;;;;;;;;4374925;32;20058;-71
2022/06/21 03:41:44;;;;;;;24.10;14.63;;;;;;;;;;4376383;32;20356;-71
2022/06/21 03:44:28;;;;;;;26.08;12.32;;;;;;;;;;4375973;32;20039;-71
2022/06/21 03:46:56;;;;;;;28.23;12.75;;;;;;;;;;4377288;32;20093;-71
2022/06/21 03:49:42;;;;;;;28.60;14.60;;;;;;;;;;4377648;32;20114;-71
2022/06/21 03:52:09;;;;;;;22.00;12.20;;;;;;;;;;4375791;32;20057;-71
2022/06/21 03:54:41;;;;;;;19.77;12.25;;;;;;;;;;4375919;32;20127;-71
2022/06/21 03:57:14;;;;;;;23.45;12.52;;;;;;;;;;4374852;32;20043;-71
2022/06/21 03:59:43;;;;;;;19.70;13.27;;;;;;;;;;4376125;32;20075;-71
2022/06/21 04:02:12;;;;;;;24.42;14.50;;;;;;;;;;4375509;32;20026;-71
2022/06/21 04:04:56;;;;;;;23.12;14.07;;;;;;;;;;4376658;32;20027;-70
2022/06/21 04:07:38;;;;;;;30.33;16.23;;;;;;;;;;4374639;32;20047;-70
2022/06/21 04:10:06;;;;;;;27.40;15.23;;;;;;;;;;4375962;32;20055;-71
2022/06/21 04:12:34;;;;;;;25.83;14.85;;;;;;;;;;4374909;32;20046;-71
2022/06/21 04:15:08;;;;;;;21.52;15.20;;;;;;;;;;4375862;32;20043;-70
2022/06/21 04:17:39;;;;;;;22.67;14.60;;;;;;;;;;4362176;32;20070;-72
2022/06/21 04:20:08;;;;;;;26.80;14.90;;;;;;;;;;4374795;32;20106;-70
2022/06/21 04:22:33;;;;;;;20.75;12.48;;;;;;;;;;4364924;32;20101;-71
2022/06/21 04:25:07;;;;;;;16.15;12.13;;;;;;;;;;4377831;32;20028;-71
2022/06/21 04:27:35;;;;;;;21.08;12.13;;;;;;;;;;4379573;32;20173;-71
2022/06/21 04:30:00;;;;;;;21.75;11.85;;;;;;;;;;4378063;32;20022;-71
2022/06/21 04:32:40;;;;;;;22.60;14.13;;;;;;;;;;4377343;32;20028;-71
2022/06/21 04:35:06;;;;;;;22.00;10.95;;;;;;;;;;4378735;32;20135;-72
2022/06/21 04:37:41;;;;;;;25.15;12.40;;;;;;;;;;4377453;32;20475;-71
2022/06/21 04:40:09;;;;;;;17.62;11.57;;;;;;;;;;4378956;32;20036;-71
2022/06/21 04:42:42;;;;;;;24.42;12.27;;;;;;;;;;4363968;32;20059;-71
2022/06/21 04:45:13;;;;;;;17.10;12.35;;;;;;;;;;4379006;32;20080;-72
2022/06/21 04:47:48;;;;;;;23.90;12.52;;;;;;;;;;4364211;32;20051;-71
2022/06/21 04:50:16;;;;;;;24.87;11.82;;;;;;;;;;4362738;32;20125;-70
2022/06/21 04:52:44;;;;;;;19.83;11.95;;;;;;;;;;4364445;32;20023;-71
2022/06/21 04:55:13;;;;;;;18.12;10.70;;;;;;;;;;4370165;32;20064;-71
2022/06/21 04:57:39;;;;;;;23.33;10.90;;;;;;;;;;4378750;32;20019;-71
2022/06/21 05:00:06;;;;;;;17.90;11.02;;;;;;;;;;4364489;32;20039;-71
2022/06/21 05:02:34;;;;;;;17.58;10.32;;;;;;;;;;4369999;32;20387;-70
2022/06/21 05:04:59;;;;;;;14.05;10.57;;;;;;;;;;4375667;32;20049;-71
2022/06/21 05:07:26;;;;;;;20.12;10.25;;;;;;;;;;4375266;32;20035;-71
2022/06/21 05:09:53;;;;;;;21.12;9.95;;;;;;;;;;4378203;32;20127;-70
2022/06/21 05:12:33;;;;;;;19.35;10.15;;;;;;;;;;4379096;32;20061;-69
2022/06/21 05:15:02;;;;;;;20.85;10.30;;;;;;;;;;4377111;32;20055;-71
2022/06/21 05:17:27;;;;;;;29.10;10.43;;;;;;;;;;4377006;32;20039;-70
2022/06/21 05:19:54;;;;;;;16.73;9.15;;;;;;;;;;4377081;32;20153;-70
2022/06/21 05:22:30;;;;;;;20.30;9.77;;;;;;;;;;4377757;32;20056;-72
2022/06/21 05:24:56;;;;;;;20.77;10.25;;;;;;;;;;4378480;32;20056;-71
2022/06/21 05:27:40;;;;;;;15.27;8.98;;;;;;;;;;4376040;32;20038;-70
2022/06/21 05:30:11;;;;;;;20.33;10.73;;;;;;;;;;4376694;32;20035;-70
2022/06/21 05:32:39;;;;;;;17.50;10.02;;;;;;;;;;4364330;32;20090;-71
2022/06/21 05:35:09;;;;;;;17.17;9.48;;;;;;;;;;4377808;32;20413;-70
2022/06/21 05:37:36;;;;;;;15.70;8.18;;;;;;;;;;4376723;32;20093;-71
2022/06/21 05:40:04;;;;;;;27.27;10.27;;;;;;;;;;4377398;32;20027;-72
2022/06/21 05:42:29;;;;;;;14.38;8.63;;;;;;;;;;4376550;32;20061;-71
2022/06/21 05:44:55;;;;;;;12.95;9.48;;;;;;;;;;4364416;32;20067;-71
2022/06/21 05:47:22;;;;;;;17.62;8.77;;;;;;;;;;4377084;32;20034;-70
2022/06/21 05:49:48;;;;;;;12.80;7.75;;;;;;;;;;4377530;32;20141;-71
2022/06/21 05:52:16;;;;;;;16.80;8.80;;;;;;;;;;4377476;32;20146;-71
2022/06/21 05:54:44;;;;;;;15.52;8.30;;;;;;;;;;4378235;32;20026;-71
2022/06/21 05:57:11;;;;;;;21.00;9.45;;;;;;;;;;4376914;32;20027;-71
2022/06/21 05:59:36;;;;;;;19.67;8.70;;;;;;;;;;4377695;32;20446;-70
2022/06/21 06:02:20;;;;;;;14.68;8.48;;;;;;;;;;4376630;32;20043;-70
2022/06/21 06:04:49;;;;;;;20.37;8.73;;;;;;;;;;4375584;32;20393;-70
2022/06/21 06:07:22;;;;;;;12.85;8.18;;;;;;;;;;4377428;32;20027;-70
2022/06/21 06:09:49;;;;;;;16.50;8.57;;;;;;;;;;4377540;32;20031;-70
2022/06/21 06:12:19;;;;;;;17.35;8.45;;;;;;;;;;4376782;32;20080;-70
2022/06/21 06:15:03;;;;;;;17.55;8.63;;;;;;;;;;4376006;32;20103;-71
2022/06/21 06:17:44;;;;;;;16.15;9.63;;;;;;;;;;4377486;32;20027;-71
2022/06/21 06:20:24;;;;;;;16.62;8.13;;;;;;;;;;4377521;32;20092;-71
2022/06/21 06:22:52;;;;;;;18.67;9.38;;;;;;;;;;4376694;32;20018;-71
2022/06/21 06:25:29;;;;;;;22.23;9.50;;;;;;;;;;4375547;32;20085;-71
2022/06/21 06:27:59;;;;;;;17.20;8.68;;;;;;;;;;4375905;32;20310;-70
2022/06/21 06:30:28;;;;;;;17.60;6.15;;;;;;;;;;4377115;32;20043;-71
2022/06/21 06:32:59;;;;;;;12.85;6.22;;;;;;;;;;4377282;32;20063;-70
2022/06/21 06:35:25;;;;;;;14.07;6.18;;;;;;;;;;4375461;32;20414;-70
2022/06/21 06:37:51;;;;;;;11.35;5.78;;;;;;;;;;4376325;32;20030;-70
2022/06/21 06:40:28;;;;;;;16.42;6.53;;;;;;;;;;4377085;32;20049;-71
2022/06/21 06:42:59;;;;;;;14.38;5.75;;;;;;;;;;4376130;32;20062;-70
2022/06/21 06:45:28;;;;;;;13.88;5.97;;;;;;;;;;4376763;32;20480;-70
2022/06/21 06:47:56;;;;;;;11.27;6.22;;;;;;;;;;4375751;32;20112;-70
2022/06/21 06:50:25;;;;;;;15.48;6.03;;;;;;;;;;4376467;32;20054;-70
2022/06/21 06:52:53;;;;;;;11.43;5.75;;;;;;;;;;4377161;32;20031;-71
2022/06/21 06:55:24;;;;;;;20.02;6.28;;;;;;;;;;4376916;32;20089;-71
2022/06/21 06:57:53;;;;;;;13.20;5.43;;;;;;;;;;4377959;32;20027;-71
2022/06/21 07:00:20;;;;;;;13.10;5.00;;;;;;;;;;4376988;32;20039;-70
2022/06/21 07:02:49;;;;;;;12.55;4.87;;;;;;;;;;4361793;32;20023;-70
2022/06/21 07:05:20;;;;;;;13.20;5.22;;;;;;;;;;4376232;32;20053;-69
2022/06/21 07:07:47;;;;;;;12.63;5.32;;;;;;;;;;4376045;32;20088;-71
2022/06/21 07:10:20;;;;;;;13.40;6.10;;;;;;;;;;4362050;32;20065;-70
2022/06/21 07:12:46;;;;;;;14.77;6.30;;;;;;;;;;4361614;32;20111;-72
2022/06/21 07:15:12;;;;;;;11.90;6.12;;;;;;;;;;4376760;32;20019;-72
2022/06/21 07:17:45;;;;;;;16.23;6.28;;;;;;;;;;4363741;32;20039;-72
2022/06/21 07:20:33;;;;;;;9.77;5.30;;;;;;;;;;4376710;32;20414;-71
2022/06/21 07:22:59;;;;;;;11.07;6.00;;;;;;;;;;4353406;32;20393;-71
2022/06/21 07:25:33;;;;;;;14.15;6.15;;;;;;;;;;4376965;32;20047;-72
2022/06/21 07:28:00;;;;;;;17.33;6.12;;;;;;;;;;4376471;32;20030;-70
2022/06/21 07:30:31;;;;;;;20.88;7.40;;;;;;;;;;4376754;32;20023;-71
2022/06/21 07:33:01;;;;;;;19.37;6.45;;;;;;;;;;4361442;32;20023;-71
2022/06/21 07:35:26;;;;;;;13.50;6.65;;;;;;;;;;4361566;32;20042;-71
2022/06/21 07:37:54;;;;;;;16.23;6.60;;;;;;;;;;4375366;32;20054;-72
2022/06/21 07:40:19;;;;;;;12.30;5.50;;;;;;;;;;4376408;32;20027;-72
2022/06/21 07:42:54;;;;;;;14.00;5.70;;;;;;;;;;4374130;32;20088;-70
2022/06/21 07:45:20;;;;;;;16.08;6.07;;;;;;;;;;4376395;32;20127;-71
2022/06/21 07:47:49;;;;;;;11.25;6.22;;;;;;;;;;4373322;32;20054;-72
2022/06/21 07:50:25;;;;;;;13.23;5.97;;;;;;;;;;4375396;32;20091;-71
2022/06/21 07:53:02;;;;;;;13.62;5.72;;;;;;;;;;4374618;32;20031;-70
2022/06/21 07:55:30;;;;;;;10.45;5.57;;;;;;;;;;4360744;32;20091;-71
2022/06/21 07:58:01;;;;;;;11.98;5.53;;;;;;;;;;4373988;32;20118;-72
2022/06/21 08:06:40;;;;;;;15.23;6.45;;;;;;;;;;4375207;32;20027;-70
2022/06/21 08:08:43;;;;;;;9.10;4.87;;;;;;;;;;4377132;32;20114;-71
2022/06/21 08:11:13;;;;;;;11.48;4.90;;;;;;;;;;4376254;32;20031;-70
2022/06/21 08:13:40;;;;;;;9.75;5.07;;;;;;;;;;4375989;32;20131;-71
2022/06/21 08:16:08;;;;;;;23.25;7.35;;;;;;;;;;4376367;32;20027;-71
2022/06/21 08:18:42;;;;;;;10.20;4.50;;;;;;;;;;4375259;32;20055;-72
2022/06/21 08:21:09;;;;;;;12.57;3.67;;;;;;;;;;4374832;32;20092;-71
2022/06/21 08:23:51;;;;;;;12.32;5.00;;;;;;;;;;4376304;32;20034;-71
2022/06/21 08:26:24;;;;;;;11.25;5.87;;;;;;;;;;4376285;32;20026;-71
2022/06/21 08:29:12;;;;;;;15.52;5.78;;;;;;;;;;4375981;32;20026;-69
2022/06/21 08:31:39;;;;;;;11.30;5.30;;;;;;;;;;4353570;32;20342;-71
2022/06/21 08:34:23;;;;;;;9.82;4.93;;;;;;;;;;4360715;32;20094;-72
2022/06/21 08:36:56;;;;;;;10.38;4.78;;;;;;;;;;4375521;32;20405;-70
2022/06/21 08:39:24;;;;;;;11.30;4.40;;;;;;;;;;4374489;32;20077;-72
2022/06/21 08:42:01;;;;;;;13.13;3.80;;;;;;;;;;4374334;32;20065;-73
2022/06/21 08:44:29;;;;;;;10.73;4.12;;;;;;;;;;4375365;32;20054;-70
2022/06/21 08:47:13;;;;;;;6.93;3.53;;;;;;;;;;4377162;32;20049;-71
2022/06/21 08:49:58;;;;;;;10.05;5.03;;;;;;;;;;4374063;32;20054;-72
2022/06/21 08:52:23;;;;;;;9.38;4.70;;;;;;;;;;4377234;32;20062;-71
2022/06/21 08:54:56;;;;;;;13.13;5.28;;;;;;;;;;4374432;32;20056;-70
2022/06/21 08:57:27;;;;;;;11.95;4.78;;;;;;;;;;4376203;32;20043;-71
2022/06/21 09:00:04;;;;;;;17.37;5.35;;;;;;;;;;4360945;32;20023;-71
2022/06/21 09:02:44;;;;;;;13.77;5.32;;;;;;;;;;4374605;32;20061;-71
2022/06/21 09:05:28;;;;;;;10.20;4.53;;;;;;;;;;4375081;32;20035;-71
2022/06/21 09:08:05;;;;;;;10.90;5.65;;;;;;;;;;4376732;32;20105;-70
2022/06/21 09:10:31;;;;;;;10.65;5.00;;;;;;;;;;4378534;32;20038;-71
2022/06/21 09:13:08;;;;;;;10.52;4.93;;;;;;;;;;4377635;32;20023;-72
2022/06/21 09:15:41;;;;;;;8.15;4.55;;;;;;;;;;4378841;32;20291;-71
2022/06/21 09:18:33;;;;;;;14.98;5.00;;;;;;;;;;4364060;32;20022;-73
2022/06/21 09:21:01;;;;;;;7.68;3.97;;;;;;;;;;4340725;32;20023;-72
2022/06/21 09:23:42;;;;;;;8.93;4.22;;;;;;;;;;4378049;32;20315;-70
2022/06/21 09:26:13;;;;;;;7.93;3.30;;;;;;;;;;4378308;32;20394;-72
2022/06/21 09:28:43;;;;;;;10.23;4.87;;;;;;;;;;4378558;32;20089;-71
2022/06/21 09:31:13;;;;;;;10.10;4.45;;;;;;;;;;4376816;32;20031;-71
2022/06/21 09:33:47;;;;;;;12.45;5.70;;;;;;;;;;4376121;32;20027;-70
2022/06/21 09:36:24;;;;;;;10.38;4.35;;;;;;;;;;4378402;32;20043;-71
2022/06/21 09:38:59;;;;;;;9.20;3.97;;;;;;;;;;4377082;32;20421;-72
2022/06/21 09:41:36;;;;;;;6.30;3.67;;;;;;;;;;4377599;32;20030;-71
2022/06/21 09:44:09;;;;;;;10.90;3.80;;;;;;;;;;4377744;32;20038;-71
2022/06/21 09:46:39;;;;;;;5.90;3.65;;;;;;;;;;4375471;32;20125;-72
2022/06/21 09:49:04;;;;;;;5.75;3.87;;;;;;;;;;4363437;32;20057;-72
2022/06/21 09:51:42;;;;;;;7.30;4.03;;;;;;;;;;4378082;32;20098;-71
2022/06/21 09:54:26;;;;;;;10.48;4.35;;;;;;;;;;4376380;32;20525;-70
2022/06/21 09:56:54;;;;;;;6.55;3.60;;;;;;;;;;4376283;32;20031;-72
2022/06/21 09:59:34;;;;;;;6.82;3.75;;;;;;;;;;4377785;32;20403;-70
2022/06/21 10:02:16;;;;;;;13.50;4.20;;;;;;;;;;4378379;32;20088;-70
2022/06/21 10:04:45;;;;;;;10.98;4.05;;;;;;;;;;4376794;32;20459;-71
2022/06/21 10:07:29;;;;;;;10.75;3.53;;;;;;;;;;4378169;32;20049;-71
2022/06/21 10:10:13;;;;;;;10.02;4.05;;;;;;;;;;4376942;32;20153;-71
2022/06/21 10:12:41;;;;;;;8.07;3.60;;;;;;;;;;4376744;32;20046;-71
2022/06/21 10:15:18;;;;;;;5.00;3.35;;;;;;;;;;4378065;32;20023;-72
2022/06/21 10:17:57;;;;;;;13.60;4.07;;;;;;;;;;4376961;32;20427;-71
2022/06/21 10:20:32;;;;;;;6.93;3.90;;;;;;;;;;4377392;32;20062;-71
2022/06/21 10:23:16;;;;;;;7.12;3.95;;;;;;;;;;4376083;32;20027;-70
2022/06/21 10:25:49;;;;;;;8.95;4.37;;;;;;;;;;4377741;32;20443;-70
2022/06/21 10:28:20;;;;;;;11.32;4.15;;;;;;;;;;4376906;32;20457;-71
2022/06/21 10:30:52;;;;;;;9.70;3.58;;;;;;;;;;4376358;32;20049;-70
2022/06/21 10:33:18;;;;;;;6.40;4.22;;;;;;;;;;4375987;32;20023;-71
2022/06/21 10:35:47;;;;;;;6.45;4.00;;;;;;;;;;4376857;32;20107;-72
2022/06/21 10:38:16;;;;;;;7.47;4.53;;;;;;;;;;4376927;32;20065;-71
2022/06/21 10:41:03;;;;;;;11.73;5.80;;;;;;;;;;4375755;32;20061;-71
2022/06/21 10:43:44;;;;;;;7.37;4.57;;;;;;;;;;4376496;32;20072;-71
2022/06/21 10:46:28;;;;;;;8.70;5.18;;;;;;;;;;4377591;32;20451;-72
2022/06/21 10:49:03;;;;;;;9.00;4.70;;;;;;;;;;4375842;32;20093;-71
2022/06/21 10:51:47;;;;;;;13.18;5.18;;;;;;;;;;4376600;32;20072;-71
2022/06/21 10:54:32;;;;;;;5.97;3.45;;;;;;;;;;4376243;32;20046;-70
2022/06/21 10:57:16;;;;;;;7.93;3.95;;;;;;;;;;4375569;32;20035;-72
2022/06/21 11:02:56;;;;;;;6.93;3.87;;;;;;;;;;4375741;32;20084;-71
2022/06/21 11:05:40;;;;;;;5.43;4.05;;;;;;;;;;4376264;32;20031;-70
2022/06/21 11:08:05;;;;;;;9.88;4.30;;;;;;;;;;4374347;32;20093;-71
2022/06/21 11:10:35;;;;;;;8.63;5.07;;;;;;;;;;4361594;32;20031;-70
2022/06/21 11:13:04;;;;;;;6.05;3.40;;;;;;;;;;4376698;32;20038;-71
2022/06/21 11:15:53;;;;;;;10.75;3.67;;;;;;;;;;4376553;32;20058;-71
2022/06/21 11:18:35;;;;;;;6.55;4.12;;;;;;;;;;4376203;32;20062;-70
2022/06/21 11:21:13;;;;;;;6.40;3.55;;;;;;;;;;4375124;32;20054;-71
2022/06/21 11:23:41;;;;;;;6.87;3.47;;;;;;;;;;4376633;32;20084;-70
2022/06/21 11:26:21;;;;;;;5.53;2.40;;;;;;;;;;4360954;32;20054;-72
2022/06/21 11:28:46;;;;;;;8.02;3.12;;;;;;;;;;4363108;32;20066;-70
2022/06/21 11:31:19;;;;;;;7.70;3.53;;;;;;;;;;4375210;32;20090;-71
2022/06/21 11:33:46;;;;;;;8.48;4.40;;;;;;;;;;4375312;32;20030;-71
2022/06/21 11:36:18;;;;;;;6.93;3.78;;;;;;;;;;4376338;32;20318;-71
2022/06/21 11:38:43;;;;;;;7.80;3.83;;;;;;;;;;4374704;32;20161;-72
2022/06/21 11:44:18;;;;;;;7.72;3.72;;;;;;;;;;4375001;32;20101;-71
2022/06/21 11:46:50;;;;;;;6.22;4.05;;;;;;;;;;4375758;32;20054;-72
2022/06/21 11:49:34;;;;;;;11.63;4.95;;;;;;;;;;4376238;32;20106;-71
2022/06/21 11:52:10;;;;;;;7.37;3.90;;;;;;;;;;4376422;32;20027;-71
2022/06/21 11:54:42;;;;;;;8.85;4.25;;;;;;;;;;4376326;32;20034;-71
2022/06/21 11:57:18;;;;;;;7.28;3.87;;;;;;;;;;4375357;32;20410;-71
2022/06/21 11:59:43;;;;;;;;;;;;;;;;;;4376151;32;20051;-72
2022/06/21 12:02:27;;;;;;;5.85;3.78;;;;;;;;;;4361084;32;19938;-71
2022/06/21 12:05:16;;;;;;;7.85;4.37;;;;;;;;;;4374449;32;20357;-71
2022/06/21 12:07:56;;;;;;;7.18;3.58;;;;;;;;;;4374615;32;20419;-70
2022/06/21 12:10:27;;;;;;;8.23;5.05;;;;;;;;;;4376029;32;20129;-71
2022/06/21 12:12:58;;;;;;;8.93;3.62;;;;;;;;;;4361903;32;20042;-71
2022/06/21 12:15:25;;;;;;;7.07;4.18;;;;;;;;;;4376638;32;20124;-71
2022/06/21 12:17:53;;;;;;;8.88;4.07;;;;;;;;;;4374805;32;20035;-70
2022/06/21 12:20:22;;;;;;;6.78;4.25;;;;;;;;;;4375687;32;20459;-71
2022/06/21 12:22:51;;;;;;;8.57;3.55;;;;;;;;;;4375383;32;20023;-70
2022/06/21 12:25:17;;;;;;;4.62;3.72;;;;;;;;;;4374259;32;20031;-72
2022/06/21 12:27:44;;;;;;;4.50;3.90;;;;;;;;;;4374985;32;20065;-72
2022/06/21 12:30:29;;;;;;;7.37;3.62;;;;;;;;;;4376221;32;20042;-70
2022/06/21 12:33:01;;;;;;;9.50;4.30;;;;;;;;;;4361369;32;20062;-70
2022/06/21 12:35:40;;;;;;;6.03;3.55;;;;;;;;;;4375441;32;20023;-72
2022/06/21 12:38:06;;;;;;;5.97;3.30;;;;;;;;;;4375667;32;20129;-72
2022/06/21 12:40:34;;;;;;;10.40;4.57;;;;;;;;;;4374037;32;20023;-71
2022/06/21 12:42:59;;;;;;;5.60;3.05;;;;;;;;;;4376882;32;20019;-71
2022/06/21 12:45:43;;;;;;;7.87;4.00;;;;;;;;;;4378114;32;20050;-71
2022/06/21 12:48:11;;;;;;;8.35;3.45;;;;;;;;;;4377350;32;20132;-71
2022/06/21 12:50:46;;;;;;;8.25;3.35;;;;;;;;;;4364728;32;20031;-72
2022/06/21 12:53:21;;;;;;;4.85;3.65;;;;;;;;;;4378526;32;20057;-72
2022/06/21 12:55:49;;;;;;;11.35;3.97;;;;;;;;;;4378220;32;20048;-72
2022/06/21 12:58:20;;;;;;;5.62;3.70;;;;;;;;;;4378473;32;20055;-71
2022/06/21 13:00:53;;;;;;;7.53;3.83;;;;;;;;;;4377792;32;20057;-71
2022/06/21 13:03:48;;;;;;;6.68;3.95;;;;;;;;;;4377684;32;20093;-71
2022/06/21 13:06:13;;;;;;;9.13;4.47;;;;;;;;;;4364413;32;20031;-70
2022/06/21 13:08:50;;;;;;;7.67;4.00;;;;;;;;;;4377094;32;20069;-72
2022/06/21 13:11:20;;;;;;;8.15;4.22;;;;;;;;;;4373983;32;20210;-71
2022/06/21 13:13:53;;;;;;;7.55;3.85;;;;;;;;;;4363598;32;20039;-70
2022/06/21 13:16:24;;;;;;;7.03;4.32;;;;;;;;;;4363518;32;20023;-71
2022/06/21 13:18:53;;;;;;;7.80;4.80;;;;;;;;;;4364007;32;20035;-71
2022/06/21 13:21:30;;;;;;;9.45;5.22;;;;;;;;;;4363744;32;20085;-72
2022/06/21 13:24:10;;;;;;;11.88;5.82;;;;;;;;;;4372281;32;20417;-71
2022/06/21 13:26:54;;;;;;;12.37;7.75;;;;;;;;;;4376194;32;20043;-71
2022/06/21 13:29:29;;;;;;;9.82;5.40;;;;;;;;;;4368069;32;20062;-71
2022/06/21 13:31:58;;;;;;;8.77;4.53;;;;;;;;;;4377209;32;20096;-71
2022/06/21 13:34:26;;;;;;;8.85;4.85;;;;;;;;;;4376954;32;20027;-71
2022/06/21 13:36:53;;;;;;;10.02;4.60;;;;;;;;;;4378146;32;20019;-71
2022/06/21 13:39:24;;;;;;;10.70;5.75;;;;;;;;;;4376538;32;20046;-71
2022/06/21 13:44:45;;;;;;;10.00;4.72;;;;;;;;;;4376661;32;20033;-71
2022/06/21 13:47:13;;;;;;;9.88;4.80;;;;;;;;;;4377452;32;20026;-72
2022/06/21 13:49:42;;;;;;;7.05;4.68;;;;;;;;;;4377984;32;20353;-72
2022/06/21 13:52:13;;;;;;;8.80;5.10;;;;;;;;;;4377642;32;20054;-72
2022/06/21 13:54:48;;;;;;;11.63;5.15;;;;;;;;;;4377223;32;20136;-72
2022/06/21 13:57:18;;;;;;;7.93;4.22;;;;;;;;;;4376538;32;20081;-72
2022/06/21 13:59:45;;;;;;;10.40;4.55;;;;;;;;;;4364446;32;20047;-72
2022/06/21 14:02:13;;;;;;;7.93;4.72;;;;;;;;;;4377153;32;20030;-71
2022/06/21 14:04:44;;;;;;;9.15;4.65;;;;;;;;;;4377750;32;20372;-73
2022/06/21 14:07:18;;;;;;;12.32;5.75;;;;;;;;;;4376706;32;20034;-73
2022/06/21 14:09:55;;;;;;;10.35;5.57;;;;;;;;;;4377598;32;20034;-71
2022/06/21 14:12:25;;;;;;;7.93;4.68;;;;;;;;;;4376561;32;20031;-71
2022/06/21 14:14:56;;;;;;;9.93;5.05;;;;;;;;;;4376760;32;20348;-72
2022/06/21 14:17:31;;;;;;;6.78;5.32;;;;;;;;;;4378350;32;20053;-71
2022/06/21 14:20:01;;;;;;;6.43;3.92;;;;;;;;;;4377789;32;20027;-71
2022/06/21 14:22:31;;;;;;;8.88;4.85;;;;;;;;;;4377869;32;20032;-72
2022/06/21 14:25:00;;;;;;;9.43;4.40;;;;;;;;;;4376339;32;20090;-72
2022/06/21 14:27:38;;;;;;;8.68;4.47;;;;;;;;;;4377491;32;20368;-71
2022/06/21 14:30:10;;;;;;;7.85;4.15;;;;;;;;;;4375818;32;20408;-71
2022/06/21 14:32:35;;;;;;;6.45;3.95;;;;;;;;;;4375647;32;20019;-72
2022/06/21 14:35:21;;;;;;;6.85;4.65;;;;;;;;;;4377813;32;20053;-72
2022/06/21 14:38:05;;;;;;;9.13;5.57;;;;;;;;;;4348864;32;20035;-72
2022/06/21 14:40:43;;;;;;;9.23;5.70;;;;;;;;;;4362560;32;20069;-71
2022/06/21 14:43:16;;;;;;;9.98;5.25;;;;;;;;;;4362312;32;20114;-73
2022/06/21 14:45:47;;;;;;;7.97;3.83;;;;;;;;;;4360893;32;20069;-72
2022/06/21 14:48:18;;;;;;;7.25;4.07;;;;;;;;;;4360658;32;20082;-72
2022/06/21 14:50:53;;;;;;;8.65;4.47;;;;;;;;;;4359293;32;20081;-72
2022/06/21 14:53:27;;;;;;;8.73;3.95;;;;;;;;;;4372622;32;20054;-72
2022/06/21 14:55:56;;;;;;;12.57;5.50;;;;;;;;;;4376841;32;20398;-72
2022/06/21 14:58:39;;;;;;;5.62;4.05;;;;;;;;;;4377307;32;20076;-73
2022/06/21 15:01:18;;;;;;;8.57;3.92;;;;;;;;;;4376782;32;20402;-71
2022/06/21 15:04:03;;;;;;;8.90;4.72;;;;;;;;;;4375957;32;20027;-71
2022/06/21 15:06:33;;;;;;;6.97;4.12;;;;;;;;;;4375227;32;20023;-71
2022/06/21 15:09:17;;;;;;;7.93;4.20;;;;;;;;;;4375756;32;20057;-72
2022/06/21 15:11:53;;;;;;;9.88;5.00;;;;;;;;;;4377303;32;20031;-73
2022/06/21 15:14:24;;;;;;;8.20;4.30;;;;;;;;;;4361881;32;20401;-72